createdAt,value
2022-09-20T00:01:06.001Z,22.67
2022-09-20T00:03:33.605Z,23.93
2022-09-20T00:06:03.513Z,13.47
2022-09-20T00:08:31.173Z,21.50
2022-09-20T00:11:01.586Z,18.00
2022-09-20T00:13:29.852Z,25.50
2022-09-20T00:15:57.665Z,15.43
2022-09-20T00:18:25.351Z,21.60
2022-09-20T00:20:53.576Z,20.07
2022-09-20T00:23:22.533Z,22.33
2022-09-20T00:25:56.381Z,19.30
2022-09-20T00:28:24.265Z,19.73
2022-09-20T00:30:52.465Z,17.13
2022-09-20T00:33:20.448Z,19.73
2022-09-20T00:35:47.249Z,20.67
2022-09-20T00:38:16.182Z,19.83
2022-09-20T00:40:45.951Z,15.43
2022-09-20T00:43:15.823Z,16.83
2022-09-20T00:45:44.428Z,16.20
2022-09-20T00:48:17.093Z,15.47
2022-09-20T00:50:47.078Z,21.83
2022-09-20T00:53:17.949Z,19.93
2022-09-20T00:55:49.478Z,18.33
2022-09-20T00:58:17.619Z,27.73
2022-09-20T01:00:46.405Z,19.80
2022-09-20T01:03:15.344Z,18.17
2022-09-20T01:05:43.600Z,15.80
2022-09-20T01:08:11.692Z,14.07
2022-09-20T01:10:39.531Z,20.33
2022-09-20T01:13:08.481Z,20.47
2022-09-20T01:15:37.464Z,16.83
2022-09-20T01:18:06.599Z,21.20
2022-09-20T01:20:36.694Z,19.53
2022-09-20T01:23:19.956Z,23.83
2022-09-20T01:26:11.800Z,18.27
2022-09-20T01:28:42.129Z,18.20
2022-09-20T01:31:13.559Z,20.90
2022-09-20T01:33:45.702Z,20.17
2022-09-20T01:36:17.266Z,19.43
2022-09-20T01:38:50.080Z,12.83
2022-09-20T01:41:23.308Z,14.00
2022-09-20T01:43:56.136Z,20.33
2022-09-20T01:46:31.377Z,23.77
2022-09-20T01:49:09.271Z,11.63
2022-09-20T01:52:02.539Z,19.57
2022-09-20T01:55:02.149Z,16.43
2022-09-20T01:57:47.363Z,18.83
2022-09-20T02:00:17.637Z,12.33
2022-09-20T02:03:35.995Z,16.83
2022-09-20T02:06:23.239Z,10.87
2022-09-20T02:09:01.438Z,16.23
2022-09-20T02:11:30.903Z,19.13
2022-09-20T02:14:05.804Z,19.90
2022-09-20T02:16:50.594Z,19.53
2022-09-20T02:19:34.747Z,21.37
2022-09-20T02:22:17.135Z,22.70
2022-09-20T02:24:47.842Z,12.93
2022-09-20T02:27:23.558Z,20.23
2022-09-20T02:30:01.813Z,17.00
2022-09-20T02:32:45.650Z,20.07
2022-09-20T02:35:21.268Z,12.40
2022-09-20T02:38:12.583Z,15.93
2022-09-20T02:40:56.788Z,18.60
2022-09-20T02:43:32.399Z,18.03
2022-09-20T02:46:04.478Z,21.73
2022-09-20T02:48:38.074Z,18.30
2022-09-20T02:51:10.756Z,20.77
2022-09-20T02:53:43.982Z,24.77
2022-09-20T02:56:16.037Z,22.30
2022-09-20T02:58:49.556Z,18.30
2022-09-20T03:01:25.817Z,18.50
2022-09-20T03:04:02.983Z,18.40
2022-09-20T03:06:35.025Z,19.50
2022-09-20T03:09:08.307Z,19.27
2022-09-20T03:11:40.280Z,14.10
2022-09-20T03:14:18.827Z,17.60
2022-09-20T03:16:54.617Z,12.63
2022-09-20T03:19:34.269Z,14.50
2022-09-20T03:22:08.881Z,15.70
2022-09-20T03:24:44.840Z,16.83
2022-09-20T03:27:20.173Z,13.90
2022-09-20T03:30:02.720Z,19.63
2022-09-20T03:32:42.898Z,15.90
2022-09-20T03:35:24.021Z,12.33
2022-09-20T03:38:04.945Z,12.87
2022-09-20T03:40:46.983Z,12.10
2022-09-20T03:43:20.157Z,11.73
2022-09-20T03:46:01.501Z,15.83
2022-09-20T03:48:49.679Z,15.63
2022-09-20T03:51:24.317Z,12.97
2022-09-20T03:54:08.108Z,19.80
2022-09-20T03:57:20.268Z,21.13
2022-09-20T03:59:59.580Z,21.73
2022-09-20T04:02:39.805Z,13.57
2022-09-20T04:05:12.683Z,14.60
2022-09-20T04:07:48.909Z,17.43
2022-09-20T04:10:38.902Z,17.53
2022-09-20T04:13:17.752Z,12.23
2022-09-20T04:15:55.332Z,10.30
2022-09-20T04:18:26.394Z,12.60
2022-09-20T04:20:57.863Z,11.20
2022-09-20T04:23:36.782Z,7.60
2022-09-20T04:26:04.627Z,12.43
2022-09-20T04:28:36.825Z,8.30
2022-09-20T04:31:15.682Z,10.80
2022-09-20T04:33:46.438Z,13.63
2022-09-20T04:36:29.582Z,22.93
2022-09-20T04:39:06.111Z,10.97
2022-09-20T04:41:51.185Z,11.57
2022-09-20T04:44:36.166Z,8.97
2022-09-20T04:47:25.072Z,14.60
2022-09-20T04:50:20.313Z,15.50
2022-09-20T04:53:31.159Z,14.83
2022-09-20T04:56:01.869Z,12.03
2022-09-20T04:58:42.178Z,14.80
2022-09-20T05:02:03.382Z,19.63
2022-09-20T05:05:09.028Z,12.67
2022-09-20T05:08:03.495Z,16.13
2022-09-20T05:10:45.994Z,18.93
2022-09-20T05:13:21.992Z,9.90
2022-09-20T05:15:58.482Z,10.83
2022-09-20T05:18:59.340Z,12.30
2022-09-20T05:21:41.995Z,14.43
2022-09-20T05:24:21.798Z,12.00
2022-09-20T05:27:04.517Z,10.47
2022-09-20T05:29:40.459Z,7.43
2022-09-20T05:32:13.295Z,8.40
2022-09-20T05:34:47.338Z,17.17
2022-09-20T05:37:23.869Z,22.93
2022-09-20T05:39:55.389Z,12.27
2022-09-20T05:42:30.119Z,13.67
2022-09-20T05:45:07.538Z,13.70
2022-09-20T05:47:41.574Z,14.30
2022-09-20T05:50:35.192Z,11.37
2022-09-20T05:53:11.527Z,15.23
2022-09-20T05:55:50.162Z,16.13
2022-09-20T05:58:29.598Z,16.33
2022-09-20T06:01:02.863Z,21.70
2022-09-20T06:03:37.496Z,11.97
2022-09-20T06:06:11.769Z,17.87
2022-09-20T06:09:04.553Z,15.63
2022-09-20T06:12:12.947Z,15.67
2022-09-20T06:14:46.764Z,17.40
2022-09-20T06:17:24.388Z,18.50
2022-09-20T06:20:01.299Z,11.33
2022-09-20T06:22:30.963Z,13.23
2022-09-20T06:25:02.772Z,19.33
2022-09-20T06:27:35.092Z,24.17
2022-09-20T06:30:06.728Z,17.13
2022-09-20T06:32:35.980Z,10.07
2022-09-20T06:35:04.168Z,15.63
2022-09-20T06:38:00.205Z,13.17
2022-09-20T06:40:52.075Z,11.40
2022-09-20T06:43:19.722Z,16.00
2022-09-20T06:45:48.061Z,11.40
2022-09-20T06:48:19.180Z,20.20
2022-09-20T06:50:47.060Z,26.13
2022-09-20T06:53:17.643Z,20.07
2022-09-20T06:55:46.255Z,18.00
2022-09-20T06:58:13.883Z,22.33
2022-09-20T07:00:41.469Z,15.20
2022-09-20T07:03:09.286Z,17.40
2022-09-20T07:05:38.354Z,28.00
2022-09-20T07:08:06.386Z,13.13
2022-09-20T07:10:34.285Z,18.63
2022-09-20T07:13:03.160Z,12.47
2022-09-20T07:15:32.496Z,19.33
2022-09-20T07:18:00.582Z,14.30
2022-09-20T07:20:28.520Z,24.67
2022-09-20T07:22:57.455Z,22.07
2022-09-20T07:25:25.060Z,16.20
2022-09-20T07:27:52.617Z,15.60
2022-09-20T07:30:21.491Z,20.90
2022-09-20T07:32:49.136Z,13.27
2022-09-20T07:35:16.884Z,12.13
2022-09-20T07:37:44.563Z,19.37
2022-09-20T07:40:15.858Z,13.67
2022-09-20T07:42:45.985Z,17.27
2022-09-20T07:45:13.729Z,9.60
2022-09-20T07:47:42.093Z,10.17
2022-09-20T07:50:11.604Z,14.77
2022-09-20T07:52:39.255Z,13.33
2022-09-20T07:55:07.429Z,17.83
2022-09-20T07:57:37.646Z,16.60
2022-09-20T08:00:07.484Z,13.83
2022-09-20T08:02:40.032Z,9.60
2022-09-20T08:05:08.626Z,16.67
2022-09-20T08:07:36.446Z,14.27
2022-09-20T08:10:04.071Z,18.53
2022-09-20T08:15:22.089Z,11.93
2022-09-20T08:17:49.764Z,15.13
2022-09-20T08:20:18.215Z,9.30
2022-09-20T08:23:00.940Z,16.13
2022-09-20T08:25:34.024Z,10.67
2022-09-20T08:28:01.678Z,16.43
2022-09-20T08:30:33.536Z,16.70
2022-09-20T08:33:02.101Z,11.13
2022-09-20T08:35:29.747Z,20.33
2022-09-20T08:37:57.560Z,13.47
2022-09-20T08:40:45.113Z,16.83
2022-09-20T08:43:12.944Z,18.60
2022-09-20T08:45:42.352Z,11.33
2022-09-20T08:48:14.560Z,8.33
2022-09-20T08:50:42.159Z,11.20
2022-09-20T08:53:13.766Z,9.70
2022-09-20T08:55:43.591Z,13.80
2022-09-20T08:58:12.522Z,18.10
2022-09-20T09:00:42.242Z,8.23
2022-09-20T09:03:13.773Z,9.17
2022-09-20T09:05:44.823Z,11.30
2022-09-20T09:08:16.472Z,13.47
2022-09-20T09:10:46.137Z,8.70
2022-09-20T09:13:21.055Z,9.37
2022-09-20T09:15:54.175Z,9.43
2022-09-20T09:18:21.728Z,12.77
2022-09-20T09:20:49.587Z,11.90
2022-09-20T09:23:25.288Z,11.17
2022-09-20T09:25:53.983Z,12.53
2022-09-20T09:28:23.916Z,10.80
2022-09-20T09:30:52.917Z,7.43
2022-09-20T09:33:26.444Z,13.53
2022-09-20T09:36:00.147Z,10.40
2022-09-20T09:38:30.243Z,12.90
2022-09-20T09:40:59.072Z,12.90
2022-09-20T09:43:29.072Z,12.03
2022-09-20T09:46:18.250Z,15.87
2022-09-20T09:48:49.873Z,12.83
2022-09-20T09:51:19.392Z,9.27
2022-09-20T09:53:49.081Z,10.17
2022-09-20T09:56:24.833Z,11.57
2022-09-20T09:59:09.114Z,12.50
2022-09-20T10:01:44.092Z,5.97
2022-09-20T10:04:17.171Z,9.73
2022-09-20T10:06:52.489Z,12.83
2022-09-20T10:09:30.129Z,5.43
2022-09-20T10:12:10.180Z,14.10
2022-09-20T10:14:49.346Z,15.23
2022-09-20T10:17:35.031Z,13.00
2022-09-20T10:20:10.988Z,12.13
2022-09-20T10:23:06.680Z,8.00
2022-09-20T10:25:40.693Z,6.23
2022-09-20T10:28:18.069Z,4.70
2022-09-20T10:30:52.375Z,8.87
2022-09-20T10:33:26.469Z,14.97
2022-09-20T10:36:05.073Z,8.03
2022-09-20T10:38:35.188Z,9.50
2022-09-20T10:41:34.555Z,10.37
2022-09-20T10:44:09.952Z,10.77
2022-09-20T10:46:51.494Z,11.77
2022-09-20T10:49:24.966Z,9.10
2022-09-20T10:52:02.951Z,7.27
2022-09-20T10:54:41.597Z,8.90
2022-09-20T10:57:24.480Z,9.73
2022-09-20T10:59:59.005Z,12.60
2022-09-20T11:02:45.966Z,7.67
2022-09-20T11:05:28.995Z,12.73
2022-09-20T11:08:05.223Z,14.53
2022-09-20T11:10:37.044Z,9.63
2022-09-20T11:13:08.520Z,15.37
2022-09-20T11:15:41.728Z,7.80
2022-09-20T11:18:13.857Z,6.03
2022-09-20T11:20:46.895Z,12.83
2022-09-20T11:23:18.660Z,8.93
2022-09-20T11:25:48.448Z,8.40
2022-09-20T11:28:25.473Z,19.80
2022-09-20T11:30:58.019Z,11.63
2022-09-20T11:33:28.526Z,6.97
2022-09-20T11:36:00.288Z,8.90
2022-09-20T11:38:31.411Z,6.47
2022-09-20T11:41:03.200Z,10.60
2022-09-20T11:43:31.288Z,10.50
2022-09-20T11:46:02.331Z,13.10
2022-09-20T11:48:32.179Z,7.90
2022-09-20T11:51:37.967Z,5.27
2022-09-20T11:54:17.262Z,7.60
2022-09-20T11:56:50.840Z,7.70
2022-09-20T11:59:29.201Z,10.87
2022-09-20T12:01:59.384Z,10.30
2022-09-20T12:04:33.969Z,7.97
2022-09-20T12:07:09.703Z,5.70
2022-09-20T12:09:41.359Z,5.10
2022-09-20T12:12:20.076Z,9.30
2022-09-20T12:14:54.500Z,9.13
2022-09-20T12:17:59.610Z,6.07
2022-09-20T12:21:04.740Z,8.70
2022-09-20T12:24:08.803Z,7.60
2022-09-20T12:26:43.418Z,7.57
2022-09-20T12:29:55.519Z,7.40
2022-09-20T12:32:56.165Z,9.73
2022-09-20T12:36:16.502Z,13.70
2022-09-20T12:38:59.586Z,15.27
2022-09-20T12:41:28.882Z,14.87
2022-09-20T12:44:05.209Z,11.30
2022-09-20T12:46:51.912Z,9.63
2022-09-20T12:49:53.624Z,4.93
2022-09-20T12:52:45.400Z,7.37
2022-09-20T12:55:14.138Z,4.63
2022-09-20T12:57:41.687Z,5.33
2022-09-20T13:00:34.412Z,5.80
2022-09-20T13:03:02.919Z,3.83
2022-09-20T13:05:36.562Z,7.97
2022-09-20T13:08:11.016Z,5.60
2022-09-20T13:10:43.067Z,5.17
2022-09-20T13:13:23.403Z,5.27
2022-09-20T13:15:54.466Z,8.17
2022-09-20T13:18:22.922Z,4.13
2022-09-20T13:20:51.760Z,5.07
2022-09-20T13:23:23.262Z,6.77
2022-09-20T13:25:51.277Z,4.13
2022-09-20T13:28:28.776Z,6.70
2022-09-20T13:31:29.967Z,7.27
2022-09-20T13:34:16.787Z,7.37
2022-09-20T13:36:44.697Z,4.07
2022-09-20T13:39:25.262Z,4.00
2022-09-20T13:41:53.109Z,5.80
2022-09-20T13:44:20.892Z,7.10
2022-09-20T13:46:50.503Z,6.20
2022-09-20T13:49:23.086Z,5.60
2022-09-20T13:51:50.919Z,6.53
2022-09-20T13:54:21.751Z,7.10
2022-09-20T13:56:50.755Z,6.60
2022-09-20T13:59:19.698Z,5.30
2022-09-20T14:01:52.528Z,4.93
2022-09-20T14:04:25.707Z,5.97
2022-09-20T14:06:54.855Z,4.57
2022-09-20T14:09:28.522Z,9.60
2022-09-20T14:11:57.273Z,8.67
2022-09-20T14:14:25.382Z,6.83
2022-09-20T14:16:55.791Z,5.23
2022-09-20T14:19:28.560Z,5.60
2022-09-20T14:21:56.152Z,4.40
2022-09-20T14:24:26.757Z,7.03
2022-09-20T14:27:03.853Z,5.53
2022-09-20T14:29:39.931Z,8.00
2022-09-20T14:32:24.899Z,3.40
2022-09-20T14:34:59.915Z,3.33
2022-09-20T14:37:28.967Z,3.90
2022-09-20T14:39:58.373Z,3.70
2022-09-20T14:42:30.848Z,6.43
2022-09-20T14:44:58.433Z,5.60
2022-09-20T14:47:37.497Z,6.00
2022-09-20T14:50:05.978Z,4.43
2022-09-20T14:52:38.807Z,5.60
2022-09-20T14:55:20.693Z,10.17
2022-09-20T14:57:49.212Z,9.00
2022-09-20T15:00:20.776Z,5.23
2022-09-20T15:02:51.044Z,6.83
2022-09-20T15:05:23.772Z,6.60
2022-09-20T15:07:52.193Z,4.30
2022-09-20T15:10:19.639Z,4.27
2022-09-20T15:12:47.182Z,4.53
2022-09-20T15:15:17.310Z,3.00
2022-09-20T15:17:45.596Z,6.97
2022-09-20T15:20:24.362Z,4.93
2022-09-20T15:22:52.663Z,5.40
2022-09-20T15:25:22.082Z,6.37
2022-09-20T15:27:53.956Z,5.30
2022-09-20T15:30:24.282Z,4.90
2022-09-20T15:32:53.614Z,5.70
2022-09-20T15:35:22.424Z,7.20
2022-09-20T15:37:50.262Z,14.30
2022-09-20T15:40:18.779Z,4.53
2022-09-20T15:42:47.097Z,4.73
2022-09-20T15:45:14.733Z,4.30
2022-09-20T15:47:42.410Z,4.80
2022-09-20T15:50:10.878Z,5.60
2022-09-20T15:52:41.498Z,6.33
2022-09-20T15:55:09.899Z,7.73
2022-09-20T15:57:37.492Z,12.53
2022-09-20T16:00:05.957Z,3.50
2022-09-20T16:02:36.080Z,6.70
2022-09-20T16:05:03.788Z,4.53
2022-09-20T16:07:31.277Z,4.13
2022-09-20T16:10:00.215Z,7.40
2022-09-20T16:12:27.735Z,6.10
2022-09-20T16:14:55.285Z,3.23
2022-09-20T16:17:43.627Z,4.37
2022-09-20T16:20:10.403Z,4.10
2022-09-20T16:22:38.243Z,8.70
2022-09-20T16:25:08.686Z,6.63
2022-09-20T16:27:38.597Z,11.30
2022-09-20T16:30:07.217Z,3.50
2022-09-20T16:32:34.905Z,4.60
2022-09-20T16:35:06.703Z,5.83
2022-09-20T16:37:36.820Z,4.90
2022-09-20T16:40:05.015Z,8.57
2022-09-20T16:42:33.991Z,9.47
2022-09-20T16:45:01.485Z,6.60
2022-09-20T16:47:29.686Z,5.53
2022-09-20T16:49:58.336Z,4.50
2022-09-20T16:52:28.625Z,7.50
2022-09-20T16:54:56.572Z,6.50
2022-09-20T16:57:24.315Z,10.17
2022-09-20T16:59:55.784Z,15.03
2022-09-20T17:02:23.806Z,12.73
2022-09-20T17:04:52.344Z,6.83
2022-09-20T17:07:24.500Z,6.33
2022-09-20T17:09:53.636Z,7.83
2022-09-20T17:12:23.386Z,8.70
2022-09-20T17:14:51.296Z,5.00
2022-09-20T17:17:22.141Z,8.07
2022-09-20T17:19:50.193Z,5.60
2022-09-20T17:22:18.171Z,11.93
2022-09-20T17:24:46.017Z,9.23
2022-09-20T17:27:13.966Z,7.70
2022-09-20T17:29:41.657Z,5.30
2022-09-20T17:32:09.359Z,7.67
2022-09-20T17:34:39.176Z,6.13
2022-09-20T17:37:07.176Z,8.43
2022-09-20T17:39:34.755Z,4.90
2022-09-20T17:42:02.390Z,11.03
2022-09-20T17:44:30.095Z,7.87
2022-09-20T17:46:58.202Z,5.30
2022-09-20T17:49:27.583Z,13.90
2022-09-20T17:51:57.046Z,8.50
2022-09-20T17:54:25.402Z,9.70
2022-09-20T17:56:55.613Z,9.80
2022-09-20T17:59:24.518Z,8.50
2022-09-20T18:01:54.248Z,6.83
2022-09-20T18:04:24.629Z,9.17
2022-09-20T18:06:53.396Z,12.33
2022-09-20T18:09:24.130Z,9.17
2022-09-20T18:11:53.062Z,5.47
2022-09-20T18:14:23.177Z,8.60
2022-09-20T18:16:53.066Z,9.00
2022-09-20T18:19:22.570Z,7.60
2022-09-20T18:21:50.560Z,16.37
2022-09-20T18:24:18.549Z,10.40
2022-09-20T18:26:47.583Z,8.70
2022-09-20T18:29:18.105Z,15.77
2022-09-20T18:31:52.087Z,8.33
2022-09-20T18:34:21.118Z,10.90
2022-09-20T18:36:52.555Z,15.30
2022-09-20T18:39:20.938Z,7.60
2022-09-20T18:41:50.645Z,8.27
2022-09-20T18:44:19.177Z,8.93
2022-09-20T18:46:47.594Z,9.87
2022-09-20T18:49:16.954Z,8.43
2022-09-20T18:51:46.261Z,9.37
2022-09-20T18:54:14.214Z,9.47
2022-09-20T18:56:44.127Z,12.87
2022-09-20T18:59:17.411Z,13.07
2022-09-20T19:02:01.332Z,9.30
2022-09-20T19:05:08.634Z,13.07
2022-09-20T19:07:45.812Z,9.53
2022-09-20T19:10:22.477Z,13.00
2022-09-20T19:12:56.109Z,11.83
2022-09-20T19:15:38.281Z,7.70
2022-09-20T19:18:23.498Z,14.10
2022-09-20T19:20:55.962Z,10.77
2022-09-20T19:23:39.564Z,11.53
2022-09-20T19:26:10.542Z,10.37
2022-09-20T19:28:38.487Z,7.70
2022-09-20T19:31:12.526Z,18.50
2022-09-20T19:33:40.674Z,10.00
2022-09-20T19:36:11.507Z,9.53
2022-09-20T19:38:44.599Z,14.83
2022-09-20T19:41:27.433Z,6.70
2022-09-20T19:44:08.371Z,14.77
2022-09-20T19:46:44.696Z,14.80
2022-09-20T19:49:15.256Z,11.40
2022-09-20T19:51:44.163Z,7.37
2022-09-20T19:54:15.096Z,8.87
2022-09-20T19:56:54.728Z,12.93
2022-09-20T19:59:23.843Z,10.33
2022-09-20T20:01:53.853Z,10.87
2022-09-20T20:04:22.834Z,10.70
2022-09-20T20:06:58.224Z,12.97
2022-09-20T20:09:33.311Z,10.33
2022-09-20T20:12:04.925Z,8.57
2022-09-20T20:14:37.920Z,13.07
2022-09-20T20:17:15.646Z,10.17
2022-09-20T20:19:53.271Z,16.10
2022-09-20T20:22:31.832Z,11.63
2022-09-20T20:24:59.832Z,15.37
2022-09-20T20:27:28.440Z,12.67
2022-09-20T20:29:56.397Z,12.00
2022-09-20T20:32:25.794Z,10.60
2022-09-20T20:34:53.317Z,8.33
2022-09-20T20:37:23.886Z,13.60
2022-09-20T20:39:52.132Z,8.37
2022-09-20T20:42:20.840Z,15.30
2022-09-20T20:44:48.456Z,12.27
2022-09-20T20:47:16.189Z,13.80
2022-09-20T20:49:48.428Z,10.93
2022-09-20T20:52:18.221Z,8.40
2022-09-20T20:54:45.977Z,14.53
2022-09-20T20:57:16.915Z,10.70
2022-09-20T20:59:44.493Z,9.70
2022-09-20T21:02:12.421Z,16.00
2022-09-20T21:04:41.111Z,12.60
2022-09-20T21:07:10.791Z,9.67
2022-09-20T21:09:39.709Z,13.10
2022-09-20T21:12:07.665Z,29.57
2022-09-20T21:14:35.233Z,13.40
2022-09-20T21:17:02.842Z,8.37
2022-09-20T21:19:30.339Z,9.33
2022-09-20T21:21:57.902Z,9.17
2022-09-20T21:24:26.829Z,7.53
2022-09-20T21:26:54.421Z,10.63
2022-09-20T21:29:21.937Z,11.90
2022-09-20T21:31:49.538Z,10.23
2022-09-20T21:34:17.282Z,8.70
2022-09-20T21:36:45.213Z,8.83
2022-09-20T21:39:12.796Z,12.07
2022-09-20T21:41:42.264Z,10.37
2022-09-20T21:44:11.977Z,15.00
2022-09-20T21:46:41.299Z,10.47
2022-09-20T21:49:12.047Z,9.87
2022-09-20T21:51:41.395Z,19.27
2022-09-20T21:54:09.694Z,16.00
2022-09-20T21:56:38.165Z,10.50
2022-09-20T21:59:07.789Z,10.50
2022-09-20T22:01:37.779Z,11.07
2022-09-20T22:04:06.919Z,9.33
2022-09-20T22:06:35.878Z,8.77
2022-09-20T22:09:05.220Z,7.47
2022-09-20T22:11:35.708Z,9.00
2022-09-20T22:14:03.257Z,10.70
2022-09-20T22:16:33.505Z,8.43
2022-09-20T22:19:01.753Z,10.20
2022-09-20T22:21:30.491Z,8.43
2022-09-20T22:23:59.507Z,9.73
2022-09-20T22:26:28.368Z,13.03
2022-09-20T22:28:56.034Z,10.90
2022-09-20T22:31:25.353Z,9.53
2022-09-20T22:33:55.687Z,9.43
2022-09-20T22:36:25.700Z,11.50
2022-09-20T22:38:54.157Z,11.90
2022-09-20T22:41:22.674Z,12.73
2022-09-20T22:43:50.559Z,14.53
2022-09-20T22:46:19.291Z,8.87
2022-09-20T22:48:47.703Z,9.43
2022-09-20T22:51:18.439Z,9.10
2022-09-20T22:53:47.177Z,9.93
2022-09-20T22:56:16.926Z,8.93
2022-09-20T22:58:45.839Z,9.17
2022-09-20T23:01:15.045Z,14.47
2022-09-20T23:03:45.107Z,11.23
2022-09-20T23:06:16.516Z,15.33
2022-09-20T23:08:44.207Z,8.30
2022-09-20T23:11:12.010Z,10.30
2022-09-20T23:13:39.684Z,7.83
2022-09-20T23:16:14.607Z,13.90
2022-09-20T23:18:42.822Z,12.47
2022-09-20T23:21:10.282Z,9.87
2022-09-20T23:23:43.189Z,15.87
2022-09-20T23:26:11.917Z,11.90
2022-09-20T23:28:41.795Z,7.87
2022-09-20T23:31:11.021Z,10.93
2022-09-20T23:33:40.060Z,9.37
2022-09-20T23:36:11.089Z,13.13
2022-09-20T23:38:40.064Z,11.63
2022-09-20T23:41:08.816Z,8.60
2022-09-20T23:43:36.968Z,10.80
2022-09-20T23:46:05.585Z,8.70
2022-09-20T23:48:33.492Z,8.10
2022-09-20T23:51:01.050Z,11.83
2022-09-20T23:53:30.910Z,11.73
2022-09-20T23:56:00.103Z,10.67
2022-09-20T23:58:27.660Z,10.63
